sensor_id;sensor_type;location;lat;lon;timestamp;temperature;humidity
54558;DHT22;40452;50.080;20.040;2023-06-14T02:36:10;20.70;55.30
54558;DHT22;40452;50.080;20.040;2023-06-14T02:38:35;20.90;55.20
54558;DHT22;40452;50.080;20.040;2023-06-14T02:41:01;20.90;55.10
54558;DHT22;40452;50.080;20.040;2023-06-14T02:43:28;21.00;55.10
54558;DHT22;40452;50.080;20.040;2023-06-14T02:45:57;21.00;54.90
54558;DHT22;40452;50.080;20.040;2023-06-14T02:48:23;21.00;54.90
54558;DHT22;40452;50.080;20.040;2023-06-14T02:50:48;21.10;54.90
54558;DHT22;40452;50.080;20.040;2023-06-14T02:53:14;21.10;54.70
54558;DHT22;40452;50.080;20.040;2023-06-14T02:55:40;21.10;54.70
54558;DHT22;40452;50.080;20.040;2023-06-14T02:58:06;21.10;54.60
54558;DHT22;40452;50.080;20.040;2023-06-14T03:00:31;21.20;54.50
54558;DHT22;40452;50.080;20.040;2023-06-14T03:02:57;21.20;54.60
54558;DHT22;40452;50.080;20.040;2023-06-14T03:05:27;21.20;54.30
54558;DHT22;40452;50.080;20.040;2023-06-14T03:07:53;21.30;54.60
54558;DHT22;40452;50.080;20.040;2023-06-14T03:10:19;21.30;54.30
54558;DHT22;40452;50.080;20.040;2023-06-14T03:12:46;21.30;54.50
54558;DHT22;40452;50.080;20.040;2023-06-14T03:15:12;21.30;54.30
54558;DHT22;40452;50.080;20.040;2023-06-14T03:17:42;21.30;54.30
54558;DHT22;40452;50.080;20.040;2023-06-14T03:20:11;21.30;54.20
54558;DHT22;40452;50.080;20.040;2023-06-14T03:22:37;21.30;54.40
54558;DHT22;40452;50.080;20.040;2023-06-14T03:25:03;21.40;54.10
54558;DHT22;40452;50.080;20.040;2023-06-14T03:27:29;21.40;53.90
54558;DHT22;40452;50.080;20.040;2023-06-14T03:29:55;21.40;53.90
54558;DHT22;40452;50.080;20.040;2023-06-14T03:32:21;21.40;53.70
54558;DHT22;40452;50.080;20.040;2023-06-14T03:34:46;21.40;53.70
54558;DHT22;40452;50.080;20.040;2023-06-14T03:37:12;21.40;53.60
54558;DHT22;40452;50.080;20.040;2023-06-14T03:39:38;21.40;53.60
54558;DHT22;40452;50.080;20.040;2023-06-14T03:42:12;21.40;53.40
54558;DHT22;40452;50.080;20.040;2023-06-14T03:44:37;21.50;53.40
54558;DHT22;40452;50.080;20.040;2023-06-14T03:47:04;21.50;53.40
54558;DHT22;40452;50.080;20.040;2023-06-14T03:49:29;21.50;53.40
54558;DHT22;40452;50.080;20.040;2023-06-14T03:51:56;21.60;53.40
54558;DHT22;40452;50.080;20.040;2023-06-14T03:54:21;21.60;53.30
54558;DHT22;40452;50.080;20.040;2023-06-14T03:56:49;21.60;53.30
54558;DHT22;40452;50.080;20.040;2023-06-14T03:59:15;21.60;53.20
54558;DHT22;40452;50.080;20.040;2023-06-14T04:01:41;21.60;53.30
54558;DHT22;40452;50.080;20.040;2023-06-14T04:04:12;21.60;53.30
54558;DHT22;40452;50.080;20.040;2023-06-14T04:06:40;21.60;53.10
54558;DHT22;40452;50.080;20.040;2023-06-14T04:09:07;21.60;53.10
54558;DHT22;40452;50.080;20.040;2023-06-14T04:11:33;21.60;53.10
54558;DHT22;40452;50.080;20.040;2023-06-14T04:13:59;21.60;53.10
54558;DHT22;40452;50.080;20.040;2023-06-14T04:16:25;21.60;53.00
54558;DHT22;40452;50.080;20.040;2023-06-14T04:18:50;21.60;53.00
54558;DHT22;40452;50.080;20.040;2023-06-14T04:21:18;21.60;52.90
54558;DHT22;40452;50.080;20.040;2023-06-14T04:23:43;21.60;52.90
54558;DHT22;40452;50.080;20.040;2023-06-14T04:26:09;21.60;53.00
54558;DHT22;40452;50.080;20.040;2023-06-14T04:28:36;21.60;53.10
54558;DHT22;40452;50.080;20.040;2023-06-14T04:31:06;21.60;53.10
54558;DHT22;40452;50.080;20.040;2023-06-14T04:33:37;21.60;52.90
54558;DHT22;40452;50.080;20.040;2023-06-14T04:36:10;21.70;53.10
54558;DHT22;40452;50.080;20.040;2023-06-14T04:38:37;21.60;53.60
54558;DHT22;40452;50.080;20.040;2023-06-14T04:41:03;21.70;54.10
54558;DHT22;40452;50.080;20.040;2023-06-14T04:43:29;21.70;53.60
54558;DHT22;40452;50.080;20.040;2023-06-14T04:45:54;21.70;53.80
54558;DHT22;40452;50.080;20.040;2023-06-14T04:48:22;21.70;53.70
54558;DHT22;40452;50.080;20.040;2023-06-14T04:50:48;21.70;53.90
54558;DHT22;40452;50.080;20.040;2023-06-14T04:53:18;21.60;53.40
54558;DHT22;40452;50.080;20.040;2023-06-14T04:55:47;21.70;53.70
54558;DHT22;40452;50.080;20.040;2023-06-14T04:58:12;21.70;54.00
54558;DHT22;40452;50.080;20.040;2023-06-14T05:00:38;21.70;54.20
54558;DHT22;40452;50.080;20.040;2023-06-14T05:03:04;21.70;54.10
54558;DHT22;40452;50.080;20.040;2023-06-14T05:05:31;21.40;55.70
54558;DHT22;40452;50.080;20.040;2023-06-14T05:07:57;20.90;57.30
54558;DHT22;40452;50.080;20.040;2023-06-14T05:10:24;20.60;58.50
54558;DHT22;40452;50.080;20.040;2023-06-14T05:12:50;20.30;59.60
54558;DHT22;40452;50.080;20.040;2023-06-14T05:15:18;20.00;60.20
54558;DHT22;40452;50.080;20.040;2023-06-14T12:38:15;21.90;55.40
54558;DHT22;40452;50.080;20.040;2023-06-14T12:40:42;21.80;55.80
54558;DHT22;40452;50.080;20.040;2023-06-14T12:43:08;21.80;55.90
54558;DHT22;40452;50.080;20.040;2023-06-14T12:45:33;21.80;55.50
54558;DHT22;40452;50.080;20.040;2023-06-14T12:47:59;21.80;54.50
54558;DHT22;40452;50.080;20.040;2023-06-14T12:50:25;21.80;54.40
54558;DHT22;40452;50.080;20.040;2023-06-14T12:52:50;21.80;54.40
54558;DHT22;40452;50.080;20.040;2023-06-14T12:55:16;21.80;54.40
54558;DHT22;40452;50.080;20.040;2023-06-14T12:57:42;22.10;53.70
54558;DHT22;40452;50.080;20.040;2023-06-14T13:00:11;23.30;50.20
54558;DHT22;40452;50.080;20.040;2023-06-14T13:02:38;24.40;47.20
54558;DHT22;40452;50.080;20.040;2023-06-14T13:05:04;24.40;47.30
54558;DHT22;40452;50.080;20.040;2023-06-14T13:07:30;23.60;49.70
54558;DHT22;40452;50.080;20.040;2023-06-14T13:09:56;23.00;51.10
54558;DHT22;40452;50.080;20.040;2023-06-14T13:12:22;22.90;51.70
54558;DHT22;40452;50.080;20.040;2023-06-14T13:14:47;22.70;52.70
54558;DHT22;40452;50.080;20.040;2023-06-14T13:17:13;22.50;53.30
54558;DHT22;40452;50.080;20.040;2023-06-14T13:19:39;22.40;53.60
54558;DHT22;40452;50.080;20.040;2023-06-14T13:22:04;22.40;53.90
54558;DHT22;40452;50.080;20.040;2023-06-14T13:24:30;22.40;54.10
54558;DHT22;40452;50.080;20.040;2023-06-14T13:26:56;22.40;54.30
54558;DHT22;40452;50.080;20.040;2023-06-14T13:29:24;22.40;54.50
54558;DHT22;40452;50.080;20.040;2023-06-14T13:31:49;22.40;54.70
54558;DHT22;40452;50.080;20.040;2023-06-14T13:34:15;22.40;55.00
54558;DHT22;40452;50.080;20.040;2023-06-14T13:36:41;22.40;55.10
54558;DHT22;40452;50.080;20.040;2023-06-14T13:39:06;22.40;55.50
54558;DHT22;40452;50.080;20.040;2023-06-14T13:41:32;22.40;55.50
54558;DHT22;40452;50.080;20.040;2023-06-14T13:44:00;22.40;55.60
54558;DHT22;40452;50.080;20.040;2023-06-14T13:46:26;22.40;55.80
54558;DHT22;40452;50.080;20.040;2023-06-14T13:48:52;22.40;55.80
54558;DHT22;40452;50.080;20.040;2023-06-14T13:51:18;22.40;56.10
54558;DHT22;40452;50.080;20.040;2023-06-14T13:53:50;22.40;56.40
54558;DHT22;40452;50.080;20.040;2023-06-14T13:56:18;22.40;56.50
54558;DHT22;40452;50.080;20.040;2023-06-14T13:58:44;22.40;56.70
54558;DHT22;40452;50.080;20.040;2023-06-14T14:01:10;22.40;57.00
54558;DHT22;40452;50.080;20.040;2023-06-14T14:03:37;22.40;57.00
54558;DHT22;40452;50.080;20.040;2023-06-14T14:06:04;22.40;57.10
54558;DHT22;40452;50.080;20.040;2023-06-14T14:08:30;22.40;57.50
54558;DHT22;40452;50.080;20.040;2023-06-14T14:10:56;22.40;57.40
54558;DHT22;40452;50.080;20.040;2023-06-14T14:13:22;22.30;57.30
54558;DHT22;40452;50.080;20.040;2023-06-14T14:15:47;22.30;57.30
54558;DHT22;40452;50.080;20.040;2023-06-14T14:18:14;22.40;57.40
54558;DHT22;40452;50.080;20.040;2023-06-14T14:20:40;22.40;57.30
54558;DHT22;40452;50.080;20.040;2023-06-14T14:23:06;22.30;57.30
54558;DHT22;40452;50.080;20.040;2023-06-14T14:25:32;22.40;57.40
54558;DHT22;40452;50.080;20.040;2023-06-14T14:27:57;22.40;57.50
54558;DHT22;40452;50.080;20.040;2023-06-14T14:30:23;22.40;57.50
54558;DHT22;40452;50.080;20.040;2023-06-14T14:32:49;22.40;57.50
54558;DHT22;40452;50.080;20.040;2023-06-14T14:35:17;22.40;58.70
54558;DHT22;40452;50.080;20.040;2023-06-14T14:37:43;22.40;57.40
54558;DHT22;40452;50.080;20.040;2023-06-14T14:40:12;22.20;57.40
54558;DHT22;40452;50.080;20.040;2023-06-14T14:42:38;22.00;57.90
54558;DHT22;40452;50.080;20.040;2023-06-14T14:45:04;22.20;57.70
54558;DHT22;40452;50.080;20.040;2023-06-14T14:47:30;22.20;57.50
54558;DHT22;40452;50.080;20.040;2023-06-14T14:49:55;22.30;57.50
54558;DHT22;40452;50.080;20.040;2023-06-14T14:52:21;22.40;57.50
54558;DHT22;40452;50.080;20.040;2023-06-14T14:54:47;22.40;56.70
54558;DHT22;40452;50.080;20.040;2023-06-14T14:57:12;22.30;57.00
54558;DHT22;40452;50.080;20.040;2023-06-14T14:59:38;22.30;57.60
54558;DHT22;40452;50.080;20.040;2023-06-14T15:02:04;22.30;57.50
54558;DHT22;40452;50.080;20.040;2023-06-14T15:04:30;22.30;58.00
54558;DHT22;40452;50.080;20.040;2023-06-14T15:06:56;22.30;58.40
54558;DHT22;40452;50.080;20.040;2023-06-14T15:09:22;22.40;58.80
54558;DHT22;40452;50.080;20.040;2023-06-14T15:11:47;22.40;59.90
54558;DHT22;40452;50.080;20.040;2023-06-14T15:14:13;22.40;60.90
54558;DHT22;40452;50.080;20.040;2023-06-14T15:16:40;22.40;62.00
54558;DHT22;40452;50.080;20.040;2023-06-14T15:19:05;22.40;62.60
54558;DHT22;40452;50.080;20.040;2023-06-14T15:21:31;22.40;62.60
54558;DHT22;40452;50.080;20.040;2023-06-14T15:23:57;22.40;63.20
54558;DHT22;40452;50.080;20.040;2023-06-14T15:26:22;22.50;63.40
54558;DHT22;40452;50.080;20.040;2023-06-14T15:28:50;22.50;63.80
54558;DHT22;40452;50.080;20.040;2023-06-14T15:31:15;22.50;64.10
54558;DHT22;40452;50.080;20.040;2023-06-14T15:33:41;22.50;64.10
54558;DHT22;40452;50.080;20.040;2023-06-14T15:36:07;22.40;64.20
54558;DHT22;40452;50.080;20.040;2023-06-14T15:38:35;22.50;64.40
54558;DHT22;40452;50.080;20.040;2023-06-14T15:41:01;22.50;64.40
54558;DHT22;40452;50.080;20.040;2023-06-14T15:43:26;22.50;64.50
54558;DHT22;40452;50.080;20.040;2023-06-14T15:45:52;22.40;64.50
54558;DHT22;40452;50.080;20.040;2023-06-14T15:48:18;22.50;64.60
54558;DHT22;40452;50.080;20.040;2023-06-14T15:50:43;22.50;64.50
54558;DHT22;40452;50.080;20.040;2023-06-14T15:53:10;22.50;64.30
54558;DHT22;40452;50.080;20.040;2023-06-14T15:55:35;22.50;64.00
54558;DHT22;40452;50.080;20.040;2023-06-14T15:58:01;22.50;63.80
54558;DHT22;40452;50.080;20.040;2023-06-14T16:00:27;22.50;63.70
54558;DHT22;40452;50.080;20.040;2023-06-14T16:02:52;22.60;63.80
54558;DHT22;40452;50.080;20.040;2023-06-14T16:05:18;22.60;63.80
54558;DHT22;40452;50.080;20.040;2023-06-14T16:07:44;22.60;63.30
54558;DHT22;40452;50.080;20.040;2023-06-14T16:10:10;22.60;63.30
54558;DHT22;40452;50.080;20.040;2023-06-14T16:12:38;22.60;63.20
54558;DHT22;40452;50.080;20.040;2023-06-14T16:15:04;22.70;63.10
54558;DHT22;40452;50.080;20.040;2023-06-14T16:17:30;22.60;62.90
54558;DHT22;40452;50.080;20.040;2023-06-14T16:19:56;22.70;62.80
54558;DHT22;40452;50.080;20.040;2023-06-14T16:22:21;22.70;62.50
54558;DHT22;40452;50.080;20.040;2023-06-14T16:24:47;22.70;62.30
54558;DHT22;40452;50.080;20.040;2023-06-14T16:27:13;22.70;62.30
54558;DHT22;40452;50.080;20.040;2023-06-14T16:29:41;22.70;62.10
54558;DHT22;40452;50.080;20.040;2023-06-14T16:32:07;22.70;62.20
54558;DHT22;40452;50.080;20.040;2023-06-14T16:34:34;22.70;62.20
54558;DHT22;40452;50.080;20.040;2023-06-14T16:37:01;22.60;62.00
54558;DHT22;40452;50.080;20.040;2023-06-14T16:39:26;22.70;62.00
54558;DHT22;40452;50.080;20.040;2023-06-14T16:41:52;22.70;61.70
54558;DHT22;40452;50.080;20.040;2023-06-14T16:44:18;22.70;61.60
54558;DHT22;40452;50.080;20.040;2023-06-14T16:46:44;22.70;61.60
54558;DHT22;40452;50.080;20.040;2023-06-14T16:49:10;22.70;61.30
54558;DHT22;40452;50.080;20.040;2023-06-14T16:51:35;22.80;61.40
54558;DHT22;40452;50.080;20.040;2023-06-14T16:54:01;22.80;61.20
54558;DHT22;40452;50.080;20.040;2023-06-14T16:56:27;22.80;61.00
54558;DHT22;40452;50.080;20.040;2023-06-14T16:58:56;22.80;61.00
54558;DHT22;40452;50.080;20.040;2023-06-14T17:01:23;22.70;61.00
54558;DHT22;40452;50.080;20.040;2023-06-14T17:03:49;22.70;61.00
54558;DHT22;40452;50.080;20.040;2023-06-14T17:06:15;22.70;61.00
54558;DHT22;40452;50.080;20.040;2023-06-14T17:08:42;22.70;61.00
54558;DHT22;40452;50.080;20.040;2023-06-14T17:11:08;22.70;60.60
54558;DHT22;40452;50.080;20.040;2023-06-14T17:13:34;22.80;60.60
54558;DHT22;40452;50.080;20.040;2023-06-14T17:16:01;22.70;60.40
54558;DHT22;40452;50.080;20.040;2023-06-14T17:18:27;22.80;60.50
54558;DHT22;40452;50.080;20.040;2023-06-14T17:20:53;22.80;60.30
54558;DHT22;40452;50.080;20.040;2023-06-14T17:23:19;22.80;60.30
54558;DHT22;40452;50.080;20.040;2023-06-14T17:25:48;22.80;60.20
54558;DHT22;40452;50.080;20.040;2023-06-14T17:28:14;22.80;60.10
54558;DHT22;40452;50.080;20.040;2023-06-14T17:30:39;22.80;60.20
54558;DHT22;40452;50.080;20.040;2023-06-14T17:33:08;22.80;60.10
54558;DHT22;40452;50.080;20.040;2023-06-14T17:35:35;22.70;60.10
54558;DHT22;40452;50.080;20.040;2023-06-14T17:38:01;22.70;60.00
54558;DHT22;40452;50.080;20.040;2023-06-14T17:40:27;22.70;60.00
54558;DHT22;40452;50.080;20.040;2023-06-14T17:42:53;22.70;60.00
54558;DHT22;40452;50.080;20.040;2023-06-14T17:45:19;22.70;60.00
54558;DHT22;40452;50.080;20.040;2023-06-14T17:47:44;22.60;59.90
54558;DHT22;40452;50.080;20.040;2023-06-14T17:50:10;22.60;59.80
54558;DHT22;40452;50.080;20.040;2023-06-14T17:52:36;22.60;59.80
54558;DHT22;40452;50.080;20.040;2023-06-14T17:55:01;22.60;59.70
54558;DHT22;40452;50.080;20.040;2023-06-14T17:57:27;22.70;59.50
54558;DHT22;40452;50.080;20.040;2023-06-14T17:59:53;22.60;59.60
54558;DHT22;40452;50.080;20.040;2023-06-14T18:02:20;22.60;59.70
54558;DHT22;40452;50.080;20.040;2023-06-14T18:04:45;22.60;59.70
54558;DHT22;40452;50.080;20.040;2023-06-14T18:07:11;22.60;59.70
54558;DHT22;40452;50.080;20.040;2023-06-14T18:09:37;22.60;59.70
54558;DHT22;40452;50.080;20.040;2023-06-14T18:12:03;22.60;59.70
54558;DHT22;40452;50.080;20.040;2023-06-14T18:14:28;22.60;59.70
54558;DHT22;40452;50.080;20.040;2023-06-14T18:16:54;22.50;59.60
54558;DHT22;40452;50.080;20.040;2023-06-14T18:19:20;22.60;59.50
54558;DHT22;40452;50.080;20.040;2023-06-14T18:21:47;22.60;59.50
54558;DHT22;40452;50.080;20.040;2023-06-14T18:24:13;22.50;60.00
54558;DHT22;40452;50.080;20.040;2023-06-14T18:26:39;22.60;59.20
54558;DHT22;40452;50.080;20.040;2023-06-14T18:29:04;22.60;59.30
54558;DHT22;40452;50.080;20.040;2023-06-14T18:31:30;22.50;59.20
54558;DHT22;40452;50.080;20.040;2023-06-14T18:33:56;22.50;59.20
54558;DHT22;40452;50.080;20.040;2023-06-14T18:36:23;22.50;59.30
54558;DHT22;40452;50.080;20.040;2023-06-14T18:38:49;22.50;59.40
54558;DHT22;40452;50.080;20.040;2023-06-14T18:41:15;22.50;59.30
54558;DHT22;40452;50.080;20.040;2023-06-14T18:43:41;22.50;59.20
54558;DHT22;40452;50.080;20.040;2023-06-14T18:46:06;22.50;59.20
54558;DHT22;40452;50.080;20.040;2023-06-14T18:48:32;22.50;59.20
54558;DHT22;40452;50.080;20.040;2023-06-14T18:50:58;22.40;59.00
54558;DHT22;40452;50.080;20.040;2023-06-14T18:53:23;22.40;59.00
54558;DHT22;40452;50.080;20.040;2023-06-14T18:55:52;22.40;59.00
54558;DHT22;40452;50.080;20.040;2023-06-14T18:58:18;22.40;58.90
54558;DHT22;40452;50.080;20.040;2023-06-14T19:00:46;22.40;58.80
54558;DHT22;40452;50.080;20.040;2023-06-14T19:03:14;22.40;58.80
54558;DHT22;40452;50.080;20.040;2023-06-14T19:05:41;22.40;58.70
54558;DHT22;40452;50.080;20.040;2023-06-14T19:08:07;22.40;58.70
54558;DHT22;40452;50.080;20.040;2023-06-14T19:10:32;22.40;58.70
54558;DHT22;40452;50.080;20.040;2023-06-14T19:12:58;22.40;58.70
54558;DHT22;40452;50.080;20.040;2023-06-14T19:15:24;22.40;58.70
54558;DHT22;40452;50.080;20.040;2023-06-14T19:20:21;22.40;58.60
54558;DHT22;40452;50.080;20.040;2023-06-14T19:22:46;22.40;58.60
54558;DHT22;40452;50.080;20.040;2023-06-14T19:25:12;22.40;58.70
54558;DHT22;40452;50.080;20.040;2023-06-14T19:27:38;22.40;58.80
54558;DHT22;40452;50.080;20.040;2023-06-14T19:30:04;22.40;59.00
54558;DHT22;40452;50.080;20.040;2023-06-14T19:32:30;22.30;59.10
54558;DHT22;40452;50.080;20.040;2023-06-14T19:34:55;22.30;59.10
54558;DHT22;40452;50.080;20.040;2023-06-14T19:37:21;22.30;59.30
54558;DHT22;40452;50.080;20.040;2023-06-14T19:39:47;22.30;59.50
54558;DHT22;40452;50.080;20.040;2023-06-14T19:42:12;22.30;59.50
